Station Historical Data
Daily Summary for February 29, 2012 Units:  Both    English   Metric
« Previous Day
Next Day »
Daily Weekly Monthly Yearly Custom
  High: Low: Average:
Temperature: 72.9 °F /  22.7 °C 60.2 °F /  15.7 °C 66.2 °F /  19 °C
Dew Point: 64.8 °F /  18.2 °C 58.8 °F /  14.9 °C 62.5 °F /  16.9 °C
Humidity: 95% 72% 88%
Wind Speed: 22.0mph /  35.4km/h - 10.3mph /  16.6km/h
Wind Gust: 29.0mph /  46.7km/h - -
Wind- - SSW
Pressure: 30.06 in /  1017.8 hPa 29.74 in /  1007 hPa -
Precipitation: 0.05 in /  1.27 mm    
Historical Graphs
 
 
Tabular Data for February 29, 2012
Time Temperature Dew Point Pressure Wind Wind Speed Wind Gust Humidity Rainfall Rate (Hourly) Conditions
00:00 60.2 °F /  15.7 °C 58.8 °F /  14.9 °C 30.05in /  1017.5hPa SSE 11.0mph /  17.7km/h 16.0mph /  25.7km/h 95% 0.00in /  0mm
00:01 60.2 °F /  15.7 °C 58.8 °F /  14.9 °C 30.05in /  1017.5hPa SSE 7.0mph /  11.3km/h 16.0mph /  25.7km/h 95% 0.00in /  0mm
00:05 60.3 °F /  15.7 °C 58.9 °F /  14.9 °C 30.04in /  1017.2hPa SE 13.0mph /  20.9km/h 16.0mph /  25.7km/h 95% 0.00in /  0mm
00:10 60.4 °F /  15.8 °C 59.0 °F /  15 °C 30.05in /  1017.5hPa South 9.0mph /  14.5km/h 17.0mph /  27.4km/h 95% 0.00in /  0mm
00:15 60.4 °F /  15.8 °C 59.0 °F /  15 °C 30.05in /  1017.5hPa South 7.0mph /  11.3km/h 13.0mph /  20.9km/h 95% 0.00in /  0mm
00:21 60.4 °F /  15.8 °C 59.0 °F /  15 °C 30.05in /  1017.5hPa SSE 5.0mph /  8km/h 8.0mph /  12.9km/h 95% 0.00in /  0mm
00:26 60.4 °F /  15.8 °C 59.0 °F /  15 °C 30.06in /  1017.8hPa SSE 11.0mph /  17.7km/h 11.0mph /  17.7km/h 95% 0.00in /  0mm
00:31 60.5 °F /  15.8 °C 59.1 °F /  15.1 °C 30.05in /  1017.5hPa SSE 8.0mph /  12.9km/h 13.0mph /  20.9km/h 95% 0.00in /  0mm
00:36 60.5 °F /  15.8 °C 59.1 °F /  15.1 °C 30.05in /  1017.5hPa ESE 11.0mph /  17.7km/h 11.0mph /  17.7km/h 95% 0.00in /  0mm
00:41 60.6 °F /  15.9 °C 59.2 °F /  15.1 °C 30.05in /  1017.5hPa South 7.0mph /  11.3km/h 13.0mph /  20.9km/h 95% 0.00in /  0mm
00:46 60.6 °F /  15.9 °C 59.2 °F /  15.1 °C 30.04in /  1017.2hPa SSW 10.0mph /  16.1km/h 14.0mph /  22.5km/h 95% 0.00in /  0mm
00:51 60.6 °F /  15.9 °C 59.2 °F /  15.1 °C 30.04in /  1017.2hPa SE 10.0mph /  16.1km/h 16.0mph /  25.7km/h 95% 0.00in /  0mm
00:56 60.7 °F /  15.9 °C 59.3 °F /  15.2 °C 30.04in /  1017.2hPa South 9.0mph /  14.5km/h 12.0mph /  19.3km/h 95% 0.00in /  0mm
01:01 60.8 °F /  16 °C 59.4 °F /  15.2 °C 30.04in /  1017.2hPa SE 11.0mph /  17.7km/h 13.0mph /  20.9km/h 95% 0.00in /  0mm
01:06 60.8 °F /  16 °C 59.4 °F /  15.2 °C 30.04in /  1017.2hPa SE 8.0mph /  12.9km/h 14.0mph /  22.5km/h 95% 0.00in /  0mm
01:11 60.9 °F /  16.1 °C 59.5 °F /  15.3 °C 30.04in /  1017.2hPa SE 12.0mph /  19.3km/h 14.0mph /  22.5km/h 95% 0.00in /  0mm
01:16 61.0 °F /  16.1 °C 59.6 °F /  15.3 °C 30.03in /  1016.8hPa South 10.0mph /  16.1km/h 17.0mph /  27.4km/h 95% 0.00in /  0mm
01:21 61.0 °F /  16.1 °C 59.6 °F /  15.3 °C 30.03in /  1016.8hPa SE 11.0mph /  17.7km/h 17.0mph /  27.4km/h 95% 0.00in /  0mm
01:26 61.1 °F /  16.2 °C 59.7 °F /  15.4 °C 30.03in /  1016.8hPa SSE 15.0mph /  24.1km/h 16.0mph /  25.7km/h 95% 0.00in /  0mm
01:32 61.2 °F /  16.2 °C 59.8 °F /  15.4 °C 30.04in /  1017.2hPa SSW 11.0mph /  17.7km/h 17.0mph /  27.4km/h 95% 0.00in /  0mm
01:37 61.2 °F /  16.2 °C 59.8 °F /  15.4 °C 30.04in /  1017.2hPa SSE 12.0mph /  19.3km/h 12.0mph /  19.3km/h 95% 0.00in /  0mm
01:42 61.3 °F /  16.3 °C 59.9 °F /  15.5 °C 30.04in /  1017.2hPa SSW 8.0mph /  12.9km/h 13.0mph /  20.9km/h 95% 0.00in /  0mm
01:47 61.3 °F /  16.3 °C 59.9 °F /  15.5 °C 30.03in /  1016.8hPa South 4.0mph /  6.4km/h 14.0mph /  22.5km/h 95% 0.00in /  0mm
01:52 61.3 °F /  16.3 °C 59.9 °F /  15.5 °C 30.03in /  1016.8hPa South 7.0mph /  11.3km/h 16.0mph /  25.7km/h 95% 0.00in /  0mm
01:57 61.4 °F /  16.3 °C 60.0 °F /  15.6 °C 30.04in /  1017.2hPa South 5.0mph /  8km/h 13.0mph /  20.9km/h 95% 0.00in /  0mm
02:02 61.4 °F /  16.3 °C 60.0 °F /  15.6 °C 30.04in /  1017.2hPa SSE 10.0mph /  16.1km/h 12.0mph /  19.3km/h 95% 0.00in /  0mm
02:07 61.4 °F /  16.3 °C 60.0 °F /  15.6 °C 30.03in /  1016.8hPa SSW 7.0mph /  11.3km/h 12.0mph /  19.3km/h 95% 0.00in /  0mm
02:12 61.4 °F /  16.3 °C 60.0 °F /  15.6 °C 30.03in /  1016.8hPa South 5.0mph /  8km/h 13.0mph /  20.9km/h 95% 0.00in /  0mm
02:17 61.4 °F /  16.3 °C 60.0 °F /  15.6 °C 30.02in /  1016.5hPa SSW 7.0mph /  11.3km/h 13.0mph /  20.9km/h 95% 0.00in /  0mm
02:22 61.5 °F /  16.4 °C 60.1 °F /  15.6 °C 30.01in /  1016.1hPa South 4.0mph /  6.4km/h 11.0mph /  17.7km/h 95% 0.00in /  0mm
02:27 61.5 °F /  16.4 °C 60.1 °F /  15.6 °C 30.00in /  1015.8hPa SE 8.0mph /  12.9km/h 16.0mph /  25.7km/h 95% 0.00in /  0mm
02:32 61.5 °F /  16.4 °C 60.1 °F /  15.6 °C 29.99in /  1015.5hPa SE 14.0mph /  22.5km/h 15.0mph /  24.1km/h 95% 0.00in /  0mm
02:37 61.5 °F /  16.4 °C 60.1 °F /  15.6 °C 29.98in /  1015.1hPa SSE 13.0mph /  20.9km/h 16.0mph /  25.7km/h 95% 0.00in /  0mm
02:42 61.6 °F /  16.4 °C 60.2 °F /  15.7 °C 29.98in /  1015.1hPa SSW 11.0mph /  17.7km/h 17.0mph /  27.4km/h 95% 0.00in /  0mm
02:47 61.7 °F /  16.5 °C 60.3 °F /  15.7 °C 29.97in /  1014.8hPa SSE 14.0mph /  22.5km/h 19.0mph /  30.6km/h 95% 0.00in /  0mm
02:53 61.7 °F /  16.5 °C 60.3 °F /  15.7 °C 29.98in /  1015.1hPa SE 10.0mph /  16.1km/h 13.0mph /  20.9km/h 95% 0.00in /  0mm
02:58 61.8 °F /  16.6 °C 60.4 °F /  15.8 °C 29.99in /  1015.5hPa South 6.0mph /  9.7km/h 12.0mph /  19.3km/h 95% 0.00in /  0mm
03:03 61.9 °F /  16.6 °C 60.5 °F /  15.8 °C 30.00in /  1015.8hPa SSW 12.0mph /  19.3km/h 16.0mph /  25.7km/h 95% 0.00in /  0mm
03:08 62.0 °F /  16.7 °C 60.6 °F /  15.9 °C 29.99in /  1015.5hPa SSE 11.0mph /  17.7km/h 16.0mph /  25.7km/h 95% 0.00in /  0mm
03:13 62.0 °F /  16.7 °C 60.6 °F /  15.9 °C 29.97in /  1014.8hPa SSE 15.0mph /  24.1km/h 17.0mph /  27.4km/h 95% 0.00in /  0mm
03:18 62.0 °F /  16.7 °C 60.6 °F /  15.9 °C 29.97in /  1014.8hPa SW 13.0mph /  20.9km/h 21.0mph /  33.8km/h 95% 0.00in /  0mm
03:23 62.1 °F /  16.7 °C 60.7 °F /  15.9 °C 29.97in /  1014.8hPa South 14.0mph /  22.5km/h 18.0mph /  29km/h 95% 0.00in /  0mm
03:28 62.2 °F /  16.8 °C 60.8 °F /  16 °C 29.96in /  1014.4hPa SSE 12.0mph /  19.3km/h 19.0mph /  30.6km/h 95% 0.00in /  0mm
03:33 62.2 °F /  16.8 °C 60.8 °F /  16 °C 29.96in /  1014.4hPa South 8.0mph /  12.9km/h 22.0mph /  35.4km/h 95% 0.00in /  0mm
03:38 62.3 °F /  16.8 °C 60.8 °F /  16 °C 29.95in /  1014.1hPa SSE 9.0mph /  14.5km/h 19.0mph /  30.6km/h 95% 0.00in /  0mm
03:43 62.4 °F /  16.9 °C 61.0 °F /  16.1 °C 29.94in /  1013.8hPa SE 10.0mph /  16.1km/h 21.0mph /  33.8km/h 95% 0.00in /  0mm
03:48 62.4 °F /  16.9 °C 61.0 °F /  16.1 °C 29.95in /  1014.1hPa SSW 10.0mph /  16.1km/h 12.0mph /  19.3km/h 95% 0.00in /  0mm
03:53 62.5 °F /  16.9 °C 61.0 °F /  16.1 °C 29.96in /  1014.4hPa SSE 8.0mph /  12.9km/h 12.0mph /  19.3km/h 95% 0.00in /  0mm
03:58 62.6 °F /  17 °C 61.2 °F /  16.2 °C 29.96in /  1014.4hPa SSW 8.0mph /  12.9km/h 14.0mph /  22.5km/h 95% 0.00in /  0mm
04:03 62.6 °F /  17 °C 60.8 °F /  16 °C 29.96in /  1014.4hPa SSW 12.0mph /  19.3km/h 14.0mph /  22.5km/h 94% 0.00in /  0mm
04:08 62.7 °F /  17.1 °C 61.0 °F /  16.1 °C 29.96in /  1014.4hPa SSW 8.0mph /  12.9km/h 11.0mph /  17.7km/h 94% 0.00in /  0mm
04:13 62.7 °F /  17.1 °C 61.0 °F /  16.1 °C 29.96in /  1014.4hPa South 11.0mph /  17.7km/h 12.0mph /  19.3km/h 94% 0.00in /  0mm
04:18 62.8 °F /  17.1 °C 61.0 °F /  16.1 °C 29.96in /  1014.4hPa South 10.0mph /  16.1km/h 17.0mph /  27.4km/h 94% 0.00in /  0mm
04:23 62.9 °F /  17.2 °C 61.2 °F /  16.2 °C 29.95in /  1014.1hPa SSE 8.0mph /  12.9km/h 12.0mph /  19.3km/h 94% 0.00in /  0mm
04:28 62.9 °F /  17.2 °C 61.2 °F /  16.2 °C 29.94in /  1013.8hPa SSE 11.0mph /  17.7km/h 15.0mph /  24.1km/h 94% 0.00in /  0mm
04:33 63.0 °F /  17.2 °C 61.2 °F /  16.2 °C 29.95in /  1014.1hPa SSW 11.0mph /  17.7km/h 20.0mph /  32.2km/h 94% 0.00in /  0mm
04:38 63.1 °F /  17.3 °C 61.3 °F /  16.3 °C 29.96in /  1014.4hPa SSE 9.0mph /  14.5km/h 21.0mph /  33.8km/h 94% 0.00in /  0mm
04:43 63.2 °F /  17.3 °C 61.5 °F /  16.4 °C 29.96in /  1014.4hPa SSW 14.0mph /  22.5km/h 17.0mph /  27.4km/h 94% 0.00in /  0mm
04:48 63.3 °F /  17.4 °C 61.5 °F /  16.4 °C 29.95in /  1014.1hPa South 9.0mph /  14.5km/h 14.0mph /  22.5km/h 94% 0.00in /  0mm
04:53 63.4 °F /  17.4 °C 61.7 °F /  16.5 °C 29.95in /  1014.1hPa SSW 13.0mph /  20.9km/h 19.0mph /  30.6km/h 94% 0.00in /  0mm
04:58 63.5 °F /  17.5 °C 61.4 °F /  16.3 °C 29.96in /  1014.4hPa South 13.0mph /  20.9km/h 13.0mph /  20.9km/h 93% 0.00in /  0mm
05:03 63.5 °F /  17.5 °C 61.4 °F /  16.3 °C 29.96in /  1014.4hPa South 9.0mph /  14.5km/h 18.0mph /  29km/h 93% 0.00in /  0mm
05:08 63.6 °F /  17.6 °C 61.5 °F /  16.4 °C 29.96in /  1014.4hPa SSW 15.0mph /  24.1km/h 16.0mph /  25.7km/h 93% 0.00in /  0mm
05:14 63.7 °F /  17.6 °C 61.6 °F /  16.4 °C 29.96in /  1014.4hPa South 8.0mph /  12.9km/h 19.0mph /  30.6km/h 93% 0.00in /  0mm
05:19 63.7 °F /  17.6 °C 61.6 °F /  16.4 °C 29.96in /  1014.4hPa SSW 10.0mph /  16.1km/h 15.0mph /  24.1km/h 93% 0.00in /  0mm
05:24 63.7 °F /  17.6 °C 61.6 °F /  16.4 °C 29.97in /  1014.8hPa SSW 15.0mph /  24.1km/h 15.0mph /  24.1km/h 93% 0.00in /  0mm
05:29 63.7 °F /  17.6 °C 61.6 °F /  16.4 °C 29.96in /  1014.4hPa South 9.0mph /  14.5km/h 17.0mph /  27.4km/h 93% 0.00in /  0mm
05:34 63.7 °F /  17.6 °C 61.6 °F /  16.4 °C 29.97in /  1014.8hPa SW 6.0mph /  9.7km/h 16.0mph /  25.7km/h 93% 0.00in /  0mm
05:39 63.8 °F /  17.7 °C 61.7 °F /  16.5 °C 29.96in /  1014.4hPa SW 10.0mph /  16.1km/h 15.0mph /  24.1km/h 93% 0.00in /  0mm
05:44 63.9 °F /  17.7 °C 61.8 °F /  16.6 °C 29.97in /  1014.8hPa South 7.0mph /  11.3km/h 16.0mph /  25.7km/h 93% 0.00in /  0mm
05:49 64.0 °F /  17.8 °C 61.9 °F /  16.6 °C 29.97in /  1014.8hPa SSW 9.0mph /  14.5km/h 14.0mph /  22.5km/h 93% 0.00in /  0mm
05:54 64.1 °F /  17.8 °C 62.0 °F /  16.7 °C 29.96in /  1014.4hPa SSE 15.0mph /  24.1km/h 15.0mph /  24.1km/h 93% 0.00in /  0mm
05:59 64.1 °F /  17.8 °C 61.7 °F /  16.5 °C 29.97in /  1014.8hPa SSW 9.0mph /  14.5km/h 14.0mph /  22.5km/h 92% 0.00in /  0mm
06:04 64.2 °F /  17.9 °C 61.8 °F /  16.6 °C 29.97in /  1014.8hPa South 12.0mph /  19.3km/h 14.0mph /  22.5km/h 92% 0.00in /  0mm
06:09 64.2 °F /  17.9 °C 61.8 °F /  16.6 °C 29.97in /  1014.8hPa South 7.0mph /  11.3km/h 11.0mph /  17.7km/h 92% 0.00in /  0mm
06:14 64.3 °F /  17.9 °C 61.9 °F /  16.6 °C 29.97in /  1014.8hPa SSW 8.0mph /  12.9km/h 14.0mph /  22.5km/h 92% 0.00in /  0mm
06:19 64.3 °F /  17.9 °C 61.9 °F /  16.6 °C 29.97in /  1014.8hPa South 14.0mph /  22.5km/h 14.0mph /  22.5km/h 92% 0.00in /  0mm
06:24 64.4 °F /  18 °C 62.0 °F /  16.7 °C 29.96in /  1014.4hPa SW 10.0mph /  16.1km/h 13.0mph /  20.9km/h 92% 0.00in /  0mm
06:29 64.5 °F /  18.1 °C 61.8 °F /  16.6 °C 29.96in /  1014.4hPa South 11.0mph /  17.7km/h 13.0mph /  20.9km/h 91% 0.00in /  0mm
06:34 64.5 °F /  18.1 °C 61.8 °F /  16.6 °C 29.96in /  1014.4hPa SSW 9.0mph /  14.5km/h 11.0mph /  17.7km/h 91% 0.00in /  0mm
06:39 64.5 °F /  18.1 °C 61.8 °F /  16.6 °C 29.97in /  1014.8hPa SSW 6.0mph /  9.7km/h 14.0mph /  22.5km/h 91% 0.00in /  0mm
06:44 64.6 °F /  18.1 °C 61.9 °F /  16.6 °C 29.97in /  1014.8hPa SSW 7.0mph /  11.3km/h 15.0mph /  24.1km/h 91% 0.00in /  0mm
06:49 64.6 °F /  18.1 °C 61.9 °F /  16.6 °C 29.97in /  1014.8hPa South 9.0mph /  14.5km/h 14.0mph /  22.5km/h 91% 0.00in /  0mm
06:54 64.6 °F /  18.1 °C 61.9 °F /  16.6 °C 29.97in /  1014.8hPa SW 6.0mph /  9.7km/h 11.0mph /  17.7km/h 91% 0.00in /  0mm
06:59 64.6 °F /  18.1 °C 61.9 °F /  16.6 °C 29.97in /  1014.8hPa SSW 10.0mph /  16.1km/h 10.0mph /  16.1km/h 91% 0.00in /  0mm
07:04 64.6 °F /  18.1 °C 61.9 °F /  16.6 °C 29.97in /  1014.8hPa SSW 7.0mph /  11.3km/h 14.0mph /  22.5km/h 91% 0.00in /  0mm
07:09 64.8 °F /  18.2 °C 62.1 °F /  16.7 °C 29.96in /  1014.4hPa SW 10.0mph /  16.1km/h 18.0mph /  29km/h 91% 0.00in /  0mm
07:14 64.9 °F /  18.3 °C 62.2 °F /  16.8 °C 29.97in /  1014.8hPa South 6.0mph /  9.7km/h 12.0mph /  19.3km/h 91% 0.00in /  0mm
07:19 64.9 °F /  18.3 °C 62.2 °F /  16.8 °C 29.97in /  1014.8hPa SW 11.0mph /  17.7km/h 15.0mph /  24.1km/h 91% 0.00in /  0mm
07:24 65.0 °F /  18.3 °C 62.3 °F /  16.8 °C 29.97in /  1014.8hPa SW 7.0mph /  11.3km/h 14.0mph /  22.5km/h 91% 0.00in /  0mm
07:29 65.1 °F /  18.4 °C 62.4 °F /  16.9 °C 29.97in /  1014.8hPa SW 9.0mph /  14.5km/h 14.0mph /  22.5km/h 91% 0.00in /  0mm
07:34 65.1 °F /  18.4 °C 62.4 °F /  16.9 °C 29.97in /  1014.8hPa WSW 12.0mph /  19.3km/h 13.0mph /  20.9km/h 91% 0.00in /  0mm
07:39 65.0 °F /  18.3 °C 62.3 °F /  16.8 °C 29.97in /  1014.8hPa South 12.0mph /  19.3km/h 12.0mph /  19.3km/h 91% 0.00in /  0mm
07:44 65.1 °F /  18.4 °C 62.4 °F /  16.9 °C 29.97in /  1014.8hPa SSW 6.0mph /  9.7km/h 10.0mph /  16.1km/h 91% 0.00in /  0mm
07:50 65.2 °F /  18.4 °C 62.5 °F /  16.9 °C 29.97in /  1014.8hPa South 7.0mph /  11.3km/h 19.0mph /  30.6km/h 91% 0.00in /  0mm
07:55 65.3 °F /  18.5 °C 62.6 °F /  17 °C 29.97in /  1014.8hPa South 6.0mph /  9.7km/h 12.0mph /  19.3km/h 91% 0.00in /  0mm
08:00 65.4 °F /  18.6 °C 62.7 °F /  17.1 °C 29.96in /  1014.4hPa SSW 8.0mph /  12.9km/h 13.0mph /  20.9km/h 91% 0.00in /  0mm
08:05 65.5 °F /  18.6 °C 62.8 °F /  17.1 °C 29.96in /  1014.4hPa SSW 5.0mph /  8km/h 12.0mph /  19.3km/h 91% 0.00in /  0mm
08:10 65.5 °F /  18.6 °C 62.8 °F /  17.1 °C 29.96in /  1014.4hPa SSW 7.0mph /  11.3km/h 13.0mph /  20.9km/h 91% 0.00in /  0mm
08:15 65.6 °F /  18.7 °C 62.9 °F /  17.2 °C 29.96in /  1014.4hPa SSW 10.0mph /  16.1km/h 10.0mph /  16.1km/h 91% 0.00in /  0mm
08:20 65.7 °F /  18.7 °C 62.7 °F /  17.1 °C 29.96in /  1014.4hPa SSE 12.0mph /  19.3km/h 13.0mph /  20.9km/h 90% 0.00in /  0mm
08:25 65.8 °F /  18.8 °C 62.8 °F /  17.1 °C 29.96in /  1014.4hPa SSE 8.0mph /  12.9km/h 16.0mph /  25.7km/h 90% 0.00in /  0mm
08:30 65.9 °F /  18.8 °C 62.9 °F /  17.2 °C 29.96in /  1014.4hPa SW 12.0mph /  19.3km/h 17.0mph /  27.4km/h 90% 0.00in /  0mm
08:35 65.8 °F /  18.8 °C 62.8 °F /  17.1 °C 29.97in /  1014.8hPa SSE 7.0mph /  11.3km/h 14.0mph /  22.5km/h 90% 0.00in /  0mm
08:40 65.9 °F /  18.8 °C 62.9 °F /  17.2 °C 29.97in /  1014.8hPa SSW 9.0mph /  14.5km/h 12.0mph /  19.3km/h 90% 0.00in /  0mm
08:45 66.0 °F /  18.9 °C 63.0 °F /  17.2 °C 29.96in /  1014.4hPa SSW 14.0mph /  22.5km/h 14.0mph /  22.5km/h 90% 0.00in /  0mm
08:46 66.0 °F /  18.9 °C 63.0 °F /  17.2 °C 29.96in /  1014.4hPa SW 11.0mph /  17.7km/h 14.0mph /  22.5km/h 90% 0.00in /  0mm
08:51 66.2 °F /  19 °C 63.2 °F /  17.3 °C 29.96in /  1014.4hPa SSE 10.0mph /  16.1km/h 15.0mph /  24.1km/h 90% 0.00in /  0mm
08:56 66.4 °F /  19.1 °C 63.4 °F /  17.4 °C 29.96in /  1014.4hPa SSW 9.0mph /  14.5km/h 10.0mph /  16.1km/h 90% 0.00in /  0mm
09:01 66.5 °F /  19.2 °C 63.5 °F /  17.5 °C 29.96in /  1014.4hPa SSW 14.0mph /  22.5km/h 15.0mph /  24.1km/h 90% 0.00in /  0mm
09:06 66.6 °F /  19.2 °C 63.3 °F /  17.4 °C 29.95in /  1014.1hPa SE 11.0mph /  17.7km/h 13.0mph /  20.9km/h 89% 0.00in /  0mm
09:12 66.8 °F /  19.3 °C 63.5 °F /  17.5 °C 29.95in /  1014.1hPa SSW 11.0mph /  17.7km/h 18.0mph /  29km/h 89% 0.00in /  0mm
09:17 67.3 °F /  19.6 °C 63.6 °F /  17.6 °C 29.95in /  1014.1hPa South 15.0mph /  24.1km/h 22.0mph /  35.4km/h 88% 0.00in /  0mm
09:22 67.6 °F /  19.8 °C 63.9 °F /  17.7 °C 29.95in /  1014.1hPa SSW 13.0mph /  20.9km/h 19.0mph /  30.6km/h 88% 0.00in /  0mm
09:27 67.8 °F /  19.9 °C 64.1 °F /  17.8 °C 29.95in /  1014.1hPa SE 12.0mph /  19.3km/h 15.0mph /  24.1km/h 88% 0.00in /  0mm
09:32 67.7 °F /  19.8 °C 63.7 °F /  17.6 °C 29.95in /  1014.1hPa SW 12.0mph /  19.3km/h 19.0mph /  30.6km/h 87% 0.00in /  0mm
09:37 67.6 °F /  19.8 °C 63.9 °F /  17.7 °C 29.95in /  1014.1hPa SSW 11.0mph /  17.7km/h 16.0mph /  25.7km/h 88% 0.00in /  0mm
09:42 67.7 °F /  19.8 °C 64.0 °F /  17.8 °C 29.94in /  1013.8hPa SE 8.0mph /  12.9km/h 14.0mph /  22.5km/h 88% 0.00in /  0mm
09:47 67.8 °F /  19.9 °C 63.8 °F /  17.7 °C 29.94in /  1013.8hPa SSW 6.0mph /  9.7km/h 17.0mph /  27.4km/h 87% 0.00in /  0mm
09:52 68.0 °F /  20 °C 64.0 °F /  17.8 °C 29.94in /  1013.8hPa SSW 12.0mph /  19.3km/h 16.0mph /  25.7km/h 87% 0.00in /  0mm
09:57 68.1 °F /  20.1 °C 64.1 °F /  17.8 °C 29.94in /  1013.8hPa South 10.0mph /  16.1km/h 14.0mph /  22.5km/h 87% 0.00in /  0mm
10:02 68.2 °F /  20.1 °C 63.9 °F /  17.7 °C 29.94in /  1013.8hPa South 10.0mph /  16.1km/h 17.0mph /  27.4km/h 86% 0.00in /  0mm
10:07 68.1 °F /  20.1 °C 63.8 °F /  17.7 °C 29.94in /  1013.8hPa SSW 11.0mph /  17.7km/h 19.0mph /  30.6km/h 86% 0.00in /  0mm
10:12 68.2 °F /  20.1 °C 63.9 °F /  17.7 °C 29.94in /  1013.8hPa SSW 10.0mph /  16.1km/h 20.0mph /  32.2km/h 86% 0.00in /  0mm
10:17 68.3 °F /  20.2 °C 64.0 °F /  17.8 °C 29.94in /  1013.8hPa South 15.0mph /  24.1km/h 18.0mph /  29km/h 86% 0.00in /  0mm
10:22 68.3 °F /  20.2 °C 64.0 °F /  17.8 °C 29.94in /  1013.8hPa South 12.0mph /  19.3km/h 17.0mph /  27.4km/h 86% 0.00in /  0mm
10:27 68.4 °F /  20.2 °C 64.1 °F /  17.8 °C 29.94in /  1013.8hPa SSE 10.0mph /  16.1km/h 16.0mph /  25.7km/h 86% 0.00in /  0mm
10:32 68.5 °F /  20.3 °C 63.8 °F /  17.7 °C 29.93in /  1013.4hPa SW 17.0mph /  27.4km/h 17.0mph /  27.4km/h 85% 0.00in /  0mm
10:37 68.8 °F /  20.4 °C 64.1 °F /  17.8 °C 29.93in /  1013.4hPa SSW 7.0mph /  11.3km/h 17.0mph /  27.4km/h 85% 0.00in /  0mm
10:42 68.8 °F /  20.4 °C 64.1 °F /  17.8 °C 29.93in /  1013.4hPa South 11.0mph /  17.7km/h 23.0mph /  37km/h 85% 0.00in /  0mm
10:48 69.1 °F /  20.6 °C 64.1 °F /  17.8 °C 29.93in /  1013.4hPa SSE 8.0mph /  12.9km/h 13.0mph /  20.9km/h 84% 0.00in /  0mm
10:53 69.2 °F /  20.7 °C 63.8 °F /  17.7 °C 29.93in /  1013.4hPa SW 15.0mph /  24.1km/h 20.0mph /  32.2km/h 83% 0.00in /  0mm
10:58 69.2 °F /  20.7 °C 63.8 °F /  17.7 °C 29.93in /  1013.4hPa SSW 11.0mph /  17.7km/h 17.0mph /  27.4km/h 83% 0.00in /  0mm
11:03 69.0 °F /  20.6 °C 63.6 °F /  17.6 °C 29.93in /  1013.4hPa SSW 11.0mph /  17.7km/h 24.0mph /  38.6km/h 83% 0.00in /  0mm
11:08 68.9 °F /  20.5 °C 63.9 °F /  17.7 °C 29.93in /  1013.4hPa SW 11.0mph /  17.7km/h 18.0mph /  29km/h 84% 0.00in /  0mm
11:13 68.7 °F /  20.4 °C 63.7 °F /  17.6 °C 29.93in /  1013.4hPa SW 16.0mph /  25.7km/h 17.0mph /  27.4km/h 84% 0.00in /  0mm
11:18 68.7 °F /  20.4 °C 63.7 °F /  17.6 °C 29.92in /  1013.1hPa SSW 15.0mph /  24.1km/h 21.0mph /  33.8km/h 84% 0.00in /  0mm
11:23 68.7 °F /  20.4 °C 63.7 °F /  17.6 °C 29.92in /  1013.1hPa South 6.0mph /  9.7km/h 16.0mph /  25.7km/h 84% 0.00in /  0mm
11:28 68.8 °F /  20.4 °C 63.8 °F /  17.7 °C 29.92in /  1013.1hPa SSW 10.0mph /  16.1km/h 20.0mph /  32.2km/h 84% 0.00in /  0mm
11:33 69.1 °F /  20.6 °C 64.1 °F /  17.8 °C 29.92in /  1013.1hPa SSW 9.0mph /  14.5km/h 17.0mph /  27.4km/h 84% 0.00in /  0mm
11:38 69.5 °F /  20.8 °C 64.1 °F /  17.8 °C 29.92in /  1013.1hPa SSW 7.0mph /  11.3km/h 16.0mph /  25.7km/h 83% 0.00in /  0mm
11:43 69.9 °F /  21.1 °C 64.5 °F /  18.1 °C 29.92in /  1013.1hPa SW 10.0mph /  16.1km/h 15.0mph /  24.1km/h 83% 0.00in /  0mm
11:48 70.6 °F /  21.4 °C 64.5 °F /  18.1 °C 29.91in /  1012.8hPa SW 13.0mph /  20.9km/h 21.0mph /  33.8km/h 81% 0.00in /  0mm
11:53 70.9 °F /  21.6 °C 64.8 °F /  18.2 °C 29.91in /  1012.8hPa SW 12.0mph /  19.3km/h 18.0mph /  29km/h 81% 0.00in /  0mm
11:58 70.5 °F /  21.4 °C 64.0 °F /  17.8 °C 29.91in /  1012.8hPa SSW 13.0mph /  20.9km/h 16.0mph /  25.7km/h 80% 0.00in /  0mm
12:03 70.0 °F /  21.1 °C 63.9 °F /  17.7 °C 29.91in /  1012.8hPa SSW 11.0mph /  17.7km/h 18.0mph /  29km/h 81% 0.00in /  0mm
12:08 69.9 °F /  21.1 °C 63.8 °F /  17.7 °C 29.91in /  1012.8hPa SE 17.0mph /  27.4km/h 17.0mph /  27.4km/h 81% 0.00in /  0mm
12:13 70.1 °F /  21.2 °C 63.7 °F /  17.6 °C 29.90in /  1012.4hPa SSE 18.0mph /  29km/h 21.0mph /  33.8km/h 80% 0.00in /  0mm
12:18 70.1 °F /  21.2 °C 63.7 °F /  17.6 °C 29.90in /  1012.4hPa SSW 19.0mph /  30.6km/h 19.0mph /  30.6km/h 80% 0.00in /  0mm
12:23 70.3 °F /  21.3 °C 63.8 °F /  17.7 °C 29.89in /  1012.1hPa SW 12.0mph /  19.3km/h 18.0mph /  29km/h 80% 0.00in /  0mm
12:28 70.4 °F /  21.3 °C 63.6 °F /  17.6 °C 29.89in /  1012.1hPa SW 16.0mph /  25.7km/h 16.0mph /  25.7km/h 79% 0.00in /  0mm
12:33 70.6 °F /  21.4 °C 63.4 °F /  17.4 °C 29.89in /  1012.1hPa SSW 18.0mph /  29km/h 19.0mph /  30.6km/h 78% 0.00in /  0mm
12:38 70.7 °F /  21.5 °C 63.5 °F /  17.5 °C 29.89in /  1012.1hPa South 9.0mph /  14.5km/h 17.0mph /  27.4km/h 78% 0.00in /  0mm
12:43 70.6 °F /  21.4 °C 63.0 °F /  17.2 °C 29.90in /  1012.4hPa SSW 17.0mph /  27.4km/h 21.0mph /  33.8km/h 77% 0.00in /  0mm
12:48 70.7 °F /  21.5 °C 63.5 °F /  17.5 °C 29.88in /  1011.7hPa SW 6.0mph /  9.7km/h 19.0mph /  30.6km/h 78% 0.00in /  0mm
12:54 70.5 °F /  21.4 °C 63.7 °F /  17.6 °C 29.88in /  1011.7hPa SW 9.0mph /  14.5km/h 15.0mph /  24.1km/h 79% 0.00in /  0mm
12:59 70.0 °F /  21.1 °C 63.5 °F /  17.5 °C 29.88in /  1011.7hPa SW 13.0mph /  20.9km/h 15.0mph /  24.1km/h 80% 0.00in /  0mm
13:04 69.3 °F /  20.7 °C 63.9 °F /  17.7 °C 29.87in /  1011.4hPa SW 8.0mph /  12.9km/h 13.0mph /  20.9km/h 83% 0.18in /  4.57mm
13:09 69.2 °F /  20.7 °C 63.8 °F /  17.7 °C 29.86in /  1011.1hPa SW 15.0mph /  24.1km/h 16.0mph /  25.7km/h 83% 0.07in /  1.78mm
13:14 69.6 °F /  20.9 °C 64.2 °F /  17.9 °C 29.86in /  1011.1hPa South 8.0mph /  12.9km/h 13.0mph /  20.9km/h 83% 0.04in /  1.02mm
13:19 70.5 °F /  21.4 °C 64.4 °F /  18 °C 29.85in /  1010.7hPa WSW 15.0mph /  24.1km/h 19.0mph /  30.6km/h 81% 0.00in /  0mm
13:24 71.0 °F /  21.7 °C 64.5 °F /  18.1 °C 29.85in /  1010.7hPa SW 10.0mph /  16.1km/h 21.0mph /  33.8km/h 80% 0.00in /  0mm
13:29 71.4 °F /  21.9 °C 64.6 °F /  18.1 °C 29.85in /  1010.7hPa SSE 14.0mph /  22.5km/h 18.0mph /  29km/h 79% 0.00in /  0mm
13:34 71.4 °F /  21.9 °C 64.6 °F /  18.1 °C 29.85in /  1010.7hPa SSW 15.0mph /  24.1km/h 15.0mph /  24.1km/h 79% 0.00in /  0mm
13:39 71.1 °F /  21.7 °C 63.9 °F /  17.7 °C 29.85in /  1010.7hPa SSW 16.0mph /  25.7km/h 17.0mph /  27.4km/h 78% 0.00in /  0mm
13:44 70.9 °F /  21.6 °C 63.7 °F /  17.6 °C 29.85in /  1010.7hPa SSW 13.0mph /  20.9km/h 21.0mph /  33.8km/h 78% 0.00in /  0mm
13:49 70.8 °F /  21.6 °C 63.6 °F /  17.6 °C 29.84in /  1010.4hPa SSW 19.0mph /  30.6km/h 20.0mph /  32.2km/h 78% 0.00in /  0mm
13:54 71.1 °F /  21.7 °C 63.9 °F /  17.7 °C 29.83in /  1010hPa SSW 9.0mph /  14.5km/h 18.0mph /  29km/h 78% 0.00in /  0mm
13:59 71.6 °F /  22 °C 64.0 °F /  17.8 °C 29.83in /  1010hPa SSW 13.0mph /  20.9km/h 15.0mph /  24.1km/h 77% 0.00in /  0mm
14:04 72.0 °F /  22.2 °C 64.0 °F /  17.8 °C 29.82in /  1009.7hPa South 10.0mph /  16.1km/h 16.0mph /  25.7km/h 76% 0.00in /  0mm
14:09 71.9 °F /  22.2 °C 63.5 °F /  17.5 °C 29.81in /  1009.4hPa SSE 14.0mph /  22.5km/h 19.0mph /  30.6km/h 75% 0.00in /  0mm
14:14 71.4 °F /  21.9 °C 63.1 °F /  17.3 °C 29.79in /  1008.7hPa South 12.0mph /  19.3km/h 22.0mph /  35.4km/h 75% 0.00in /  0mm
14:19 71.2 °F /  21.8 °C 63.3 °F /  17.4 °C 29.79in /  1008.7hPa SSE 12.0mph /  19.3km/h 16.0mph /  25.7km/h 76% 0.00in /  0mm
14:24 71.3 °F /  21.8 °C 63.3 °F /  17.4 °C 29.81in /  1009.4hPa SSW 16.0mph /  25.7km/h 21.0mph /  33.8km/h 76% 0.00in /  0mm
14:29 71.4 °F /  21.9 °C 63.5 °F /  17.5 °C 29.81in /  1009.4hPa SW 20.0mph /  32.2km/h 20.0mph /  32.2km/h 76% 0.00in /  0mm
14:34 71.3 °F /  21.8 °C 63.3 °F /  17.4 °C 29.81in /  1009.4hPa South 12.0mph /  19.3km/h 28.0mph /  45.1km/h 76% 0.00in /  0mm
14:39 71.2 °F /  21.8 °C 63.3 °F /  17.4 °C 29.81in /  1009.4hPa SSW 11.0mph /  17.7km/h 18.0mph /  29km/h 76% 0.00in /  0mm
14:44 71.3 °F /  21.8 °C 63.3 °F /  17.4 °C 29.79in /  1008.7hPa South 16.0mph /  25.7km/h 19.0mph /  30.6km/h 76% 0.00in /  0mm
14:49 71.5 °F /  21.9 °C 63.2 °F /  17.3 °C 29.80in /  1009hPa SSE 15.0mph /  24.1km/h 29.0mph /  46.7km/h 75% 0.00in /  0mm
14:54 71.5 °F /  21.9 °C 63.2 °F /  17.3 °C 29.79in /  1008.7hPa SSW 12.0mph /  19.3km/h 22.0mph /  35.4km/h 75% 0.00in /  0mm
14:59 71.5 °F /  21.9 °C 63.2 °F /  17.3 °C 29.79in /  1008.7hPa SW 13.0mph /  20.9km/h 22.0mph /  35.4km/h 75% 0.00in /  0mm
15:04 71.5 °F /  21.9 °C 63.2 °F /  17.3 °C 29.79in /  1008.7hPa SSW 18.0mph /  29km/h 19.0mph /  30.6km/h 75% 0.00in /  0mm
15:09 72.0 °F /  22.2 °C 62.9 °F /  17.2 °C 29.78in /  1008.4hPa SSE 8.0mph /  12.9km/h 23.0mph /  37km/h 73% 0.00in /  0mm
15:14 72.1 °F /  22.3 °C 63.4 °F /  17.4 °C 29.78in /  1008.4hPa SSW 17.0mph /  27.4km/h 19.0mph /  30.6km/h 74% 0.00in /  0mm
15:19 72.1 °F /  22.3 °C 63.0 °F /  17.2 °C 29.78in /  1008.4hPa SW 14.0mph /  22.5km/h 23.0mph /  37km/h 73% 0.00in /  0mm
15:25 72.0 °F /  22.2 °C 62.9 °F /  17.2 °C 29.78in /  1008.4hPa SSW 14.0mph /  22.5km/h 23.0mph /  37km/h 73% 0.00in /  0mm
15:30 71.9 °F /  22.2 °C 62.8 °F /  17.1 °C 29.77in /  1008hPa SSW 11.0mph /  17.7km/h 15.0mph /  24.1km/h 73% 0.00in /  0mm
15:35 71.8 °F /  22.1 °C 63.1 °F /  17.3 °C 29.77in /  1008hPa SW 10.0mph /  16.1km/h 13.0mph /  20.9km/h 74% 0.00in /  0mm
15:40 72.1 °F /  22.3 °C 63.4 °F /  17.4 °C 29.78in /  1008.4hPa SSW 11.0mph /  17.7km/h 18.0mph /  29km/h 74% 0.00in /  0mm
15:45 72.3 °F /  22.4 °C 63.2 °F /  17.3 °C 29.77in /  1008hPa SW 22.0mph /  35.4km/h 22.0mph /  35.4km/h 73% 0.00in /  0mm
15:50 72.4 °F /  22.4 °C 63.3 °F /  17.4 °C 29.77in /  1008hPa SSE 12.0mph /  19.3km/h 19.0mph /  30.6km/h 73% 0.00in /  0mm
15:55 72.3 °F /  22.4 °C 63.2 °F /  17.3 °C 29.75in /  1007.3hPa SSW 11.0mph /  17.7km/h 16.0mph /  25.7km/h 73% 0.00in /  0mm
16:00 72.2 °F /  22.3 °C 63.1 °F /  17.3 °C 29.76in /  1007.7hPa South 16.0mph /  25.7km/h 17.0mph /  27.4km/h 73% 0.00in /  0mm
16:05 72.1 °F /  22.3 °C 63.4 °F /  17.4 °C 29.75in /  1007.3hPa South 8.0mph /  12.9km/h 20.0mph /  32.2km/h 74% 0.00in /  0mm
16:10 72.0 °F /  22.2 °C 63.3 °F /  17.4 °C 29.76in /  1007.7hPa SW 14.0mph /  22.5km/h 18.0mph /  29km/h 74% 0.00in /  0mm
16:15 71.7 °F /  22.1 °C 63.0 °F /  17.2 °C 29.76in /  1007.7hPa South 13.0mph /  20.9km/h 25.0mph /  40.2km/h 74% 0.00in /  0mm
16:20 72.4 °F /  22.4 °C 63.7 °F /  17.6 °C 29.75in /  1007.3hPa SSW 6.0mph /  9.7km/h 19.0mph /  30.6km/h 74% 0.00in /  0mm
16:25 72.9 °F /  22.7 °C 63.8 °F /  17.7 °C 29.74in /  1007hPa SSW 16.0mph /  25.7km/h 21.0mph /  33.8km/h 73% 0.00in /  0mm
16:31 72.9 °F /  22.7 °C 63.3 °F /  17.4 °C 29.76in /  1007.7hPa SW 21.0mph /  33.8km/h 21.0mph /  33.8km/h 72% 0.00in /  0mm
16:36 72.5 °F /  22.5 °C 63.4 °F /  17.4 °C 29.77in /  1008hPa WSW 17.0mph /  27.4km/h 23.0mph /  37km/h 73% 0.00in /  0mm
16:41 71.8 °F /  22.1 °C 63.1 °F /  17.3 °C 29.77in /  1008hPa SSW 20.0mph /  32.2km/h 23.0mph /  37km/h 74% 0.00in /  0mm
16:46 71.2 °F /  21.8 °C 62.9 °F /  17.2 °C 29.77in /  1008hPa SSW 12.0mph /  19.3km/h 20.0mph /  32.2km/h 75% 0.00in /  0mm
16:51 70.9 °F /  21.6 °C 63.0 °F /  17.2 °C 29.77in /  1008hPa SW 12.0mph /  19.3km/h 19.0mph /  30.6km/h 76% 0.00in /  0mm
16:56 70.7 °F /  21.5 °C 63.1 °F /  17.3 °C 29.77in /  1008hPa SW 19.0mph /  30.6km/h 19.0mph /  30.6km/h 77% 0.00in /  0mm
17:01 70.0 °F /  21.1 °C 63.2 °F /  17.3 °C 29.77in /  1008hPa SW 8.0mph /  12.9km/h 18.0mph /  29km/h 79% 0.00in /  0mm
17:06 69.7 °F /  20.9 °C 63.3 °F /  17.4 °C 29.77in /  1008hPa WSW 11.0mph /  17.7km/h 18.0mph /  29km/h 80% 0.00in /  0mm
17:11 68.9 °F /  20.5 °C 63.5 °F /  17.5 °C 29.80in /  1009hPa WSW 9.0mph /  14.5km/h 14.0mph /  22.5km/h 83% 0.00in /  0mm
17:16 68.1 °F /  20.1 °C 63.4 °F /  17.4 °C 29.79in /  1008.7hPa WSW 11.0mph /  17.7km/h 16.0mph /  25.7km/h 85% 0.14in /  3.56mm
17:21 67.7 °F /  19.8 °C 63.4 °F /  17.4 °C 29.78in /  1008.4hPa SW 17.0mph /  27.4km/h 19.0mph /  30.6km/h 86% 0.08in /  2.03mm
17:27 66.8 °F /  19.3 °C 63.5 °F /  17.5 °C 29.78in /  1008.4hPa SSW 13.0mph /  20.9km/h 18.0mph /  29km/h 89% 0.08in /  2.03mm
17:32 66.5 °F /  19.2 °C 63.5 °F /  17.5 °C 29.80in /  1009hPa SW 12.0mph /  19.3km/h 16.0mph /  25.7km/h 90% 0.06in /  1.52mm
17:37 66.2 °F /  19 °C 63.5 °F /  17.5 °C 29.80in /  1009hPa South 13.0mph /  20.9km/h 14.0mph /  22.5km/h 91% 0.04in /  1.02mm
17:42 66.0 °F /  18.9 °C 63.3 °F /  17.4 °C 29.80in /  1009hPa SW 5.0mph /  8km/h 10.0mph /  16.1km/h 91% 0.00in /  0mm
17:47 66.0 °F /  18.9 °C 63.3 °F /  17.4 °C 29.80in /  1009hPa SW 9.0mph /  14.5km/h 14.0mph /  22.5km/h 91% 0.00in /  0mm
17:52 65.9 °F /  18.8 °C 63.5 °F /  17.5 °C 29.80in /  1009hPa WSW 9.0mph /  14.5km/h 12.0mph /  19.3km/h 92% 0.00in /  0mm
17:57 66.0 °F /  18.9 °C 63.3 °F /  17.4 °C 29.80in /  1009hPa SW 12.0mph /  19.3km/h 15.0mph /  24.1km/h 91% 0.00in /  0mm
18:02 66.0 °F /  18.9 °C 63.3 °F /  17.4 °C 29.80in /  1009hPa SW 10.0mph /  16.1km/h 12.0mph /  19.3km/h 91% 0.00in /  0mm
18:07 66.0 °F /  18.9 °C 63.3 °F /  17.4 °C 29.80in /  1009hPa SSW 12.0mph /  19.3km/h 16.0mph /  25.7km/h 91% 0.00in /  0mm
18:12 66.0 °F /  18.9 °C 63.3 °F /  17.4 °C 29.80in /  1009hPa SSW 7.0mph /  11.3km/h 12.0mph /  19.3km/h 91% 0.00in /  0mm
18:17 66.0 °F /  18.9 °C 63.3 °F /  17.4 °C 29.80in /  1009hPa SW 7.0mph /  11.3km/h 15.0mph /  24.1km/h 91% 0.00in /  0mm
18:22 66.0 °F /  18.9 °C 63.3 °F /  17.4 °C 29.80in /  1009hPa SSW 6.0mph /  9.7km/h 11.0mph /  17.7km/h 91% 0.00in /  0mm
18:27 66.0 °F /  18.9 °C 63.3 °F /  17.4 °C 29.81in /  1009.4hPa SW 8.0mph /  12.9km/h 11.0mph /  17.7km/h 91% 0.00in /  0mm
18:32 65.9 °F /  18.8 °C 63.2 °F /  17.3 °C 29.81in /  1009.4hPa South 6.0mph /  9.7km/h 10.0mph /  16.1km/h 91% 0.00in /  0mm
18:37 65.8 °F /  18.8 °C 63.1 °F /  17.3 °C 29.81in /  1009.4hPa SW 9.0mph /  14.5km/h 9.0mph /  14.5km/h 91% 0.00in /  0mm
18:42 65.9 °F /  18.8 °C 63.2 °F /  17.3 °C 29.81in /  1009.4hPa SW 7.0mph /  11.3km/h 9.0mph /  14.5km/h 91% 0.00in /  0mm
18:47 65.9 °F /  18.8 °C 63.2 °F /  17.3 °C 29.82in /  1009.7hPa SSW 7.0mph /  11.3km/h 9.0mph /  14.5km/h 91% 0.00in /  0mm
18:52 65.9 °F /  18.8 °C 63.2 °F /  17.3 °C 29.82in /  1009.7hPa SSE 5.0mph /  8km/h 10.0mph /  16.1km/h 91% 0.00in /  0mm
18:58 65.9 °F /  18.8 °C 63.2 °F /  17.3 °C 29.81in /  1009.4hPa SSE 6.0mph /  9.7km/h 7.0mph /  11.3km/h 91% 0.00in /  0mm
19:03 65.8 °F /  18.8 °C 63.1 °F /  17.3 °C 29.80in /  1009hPa WSW 7.0mph /  11.3km/h 11.0mph /  17.7km/h 91% 0.00in /  0mm
19:08 65.8 °F /  18.8 °C 63.1 °F /  17.3 °C 29.80in /  1009hPa SSE 11.0mph /  17.7km/h 12.0mph /  19.3km/h 91% 0.00in /  0mm
19:13 65.8 °F /  18.8 °C 63.1 °F /  17.3 °C 29.80in /  1009hPa South 5.0mph /  8km/h 9.0mph /  14.5km/h 91% 0.00in /  0mm
19:18 65.8 °F /  18.8 °C 63.1 °F /  17.3 °C 29.81in /  1009.4hPa SSE 10.0mph /  16.1km/h 14.0mph /  22.5km/h 91% 0.00in /  0mm
19:23 65.8 °F /  18.8 °C 63.1 °F /  17.3 °C 29.81in /  1009.4hPa South 4.0mph /  6.4km/h 9.0mph /  14.5km/h 91% 0.00in /  0mm
19:28 65.6 °F /  18.7 °C 62.9 °F /  17.2 °C 29.82in /  1009.7hPa SSE 4.0mph /  6.4km/h 9.0mph /  14.5km/h 91% 0.00in /  0mm
19:33 65.5 °F /  18.6 °C 62.8 °F /  17.1 °C 29.83in /  1010hPa SSW 4.0mph /  6.4km/h 9.0mph /  14.5km/h 91% 0.00in /  0mm
19:38 65.5 °F /  18.6 °C 62.8 °F /  17.1 °C 29.83in /  1010hPa WSW 6.0mph /  9.7km/h 8.0mph /  12.9km/h 91% 0.00in /  0mm
19:43 65.4 °F /  18.6 °C 62.7 °F /  17.1 °C 29.83in /  1010hPa SSW 10.0mph /  16.1km/h 10.0mph /  16.1km/h 91% 0.00in /  0mm
19:48 65.3 °F /  18.5 °C 62.6 °F /  17 °C 29.84in /  1010.4hPa WSW 8.0mph /  12.9km/h 8.0mph /  12.9km/h 91% 0.00in /  0mm
19:53 65.2 °F /  18.4 °C 62.8 °F /  17.1 °C 29.83in /  1010hPa SSW 5.0mph /  8km/h 9.0mph /  14.5km/h 92% 0.00in /  0mm
19:58 65.2 °F /  18.4 °C 62.8 °F /  17.1 °C 29.84in /  1010.4hPa West 3.0mph /  4.8km/h 5.0mph /  8km/h 92% 0.00in /  0mm
20:03 65.2 °F /  18.4 °C 62.8 °F /  17.1 °C 29.83in /  1010hPa South 7.0mph /  11.3km/h 8.0mph /  12.9km/h 92% 0.00in /  0mm
20:08 65.2 °F /  18.4 °C 62.8 °F /  17.1 °C 29.83in /  1010hPa SSE 6.0mph /  9.7km/h 8.0mph /  12.9km/h 92% 0.00in /  0mm
20:13 65.2 °F /  18.4 °C 62.8 °F /  17.1 °C 29.83in /  1010hPa SSW 4.0mph /  6.4km/h 10.0mph /  16.1km/h 92% 0.00in /  0mm
20:18 65.2 °F /  18.4 °C 62.8 °F /  17.1 °C 29.83in /  1010hPa SSW 4.0mph /  6.4km/h 10.0mph /  16.1km/h 92% 0.00in /  0mm
20:23 65.0 °F /  18.3 °C 62.6 °F /  17 °C 29.83in /  1010hPa SW 8.0mph /  12.9km/h 8.0mph /  12.9km/h 92% 0.00in /  0mm
20:28 64.9 °F /  18.3 °C 62.5 °F /  16.9 °C 29.83in /  1010hPa SSW 5.0mph /  8km/h 10.0mph /  16.1km/h 92% 0.00in /  0mm
20:33 64.9 °F /  18.3 °C 62.5 °F /  16.9 °C 29.83in /  1010hPa SW 7.0mph /  11.3km/h 8.0mph /  12.9km/h 92% 0.00in /  0mm
20:38 65.0 °F /  18.3 °C 62.6 °F /  17 °C 29.83in /  1010hPa SW 8.0mph /  12.9km/h 9.0mph /  14.5km/h 92% 0.00in /  0mm
20:44 65.1 °F /  18.4 °C 62.7 °F /  17.1 °C 29.83in /  1010hPa WSW 6.0mph /  9.7km/h 14.0mph /  22.5km/h 92% 0.00in /  0mm
20:49 65.2 °F /  18.4 °C 62.8 °F /  17.1 °C 29.83in /  1010hPa SW 8.0mph /  12.9km/h 12.0mph /  19.3km/h 92% 0.00in /  0mm
20:54 65.3 °F /  18.5 °C 62.9 °F /  17.2 °C 29.84in /  1010.4hPa SW 10.0mph /  16.1km/h 11.0mph /  17.7km/h 92% 0.00in /  0mm
20:59 65.4 °F /  18.6 °C 63.0 °F /  17.2 °C 29.84in /  1010.4hPa SW 8.0mph /  12.9km/h 14.0mph /  22.5km/h 92% 0.00in /  0mm
21:04 65.4 °F /  18.6 °C 63.0 °F /  17.2 °C 29.84in /  1010.4hPa SW 13.0mph /  20.9km/h 14.0mph /  22.5km/h 92% 0.00in /  0mm
21:09 65.5 °F /  18.6 °C 63.1 °F /  17.3 °C 29.84in /  1010.4hPa SW 8.0mph /  12.9km/h 12.0mph /  19.3km/h 92% 0.00in /  0mm
21:14 65.5 °F /  18.6 °C 63.1 °F /  17.3 °C 29.84in /  1010.4hPa WSW 14.0mph /  22.5km/h 14.0mph /  22.5km/h 92% 0.00in /  0mm
21:19 65.5 °F /  18.6 °C 63.1 °F /  17.3 °C 29.83in /  1010hPa SW 6.0mph /  9.7km/h 18.0mph /  29km/h 92% 0.00in /  0mm
21:24 65.4 °F /  18.6 °C 63.0 °F /  17.2 °C 29.83in /  1010hPa WSW 7.0mph /  11.3km/h 13.0mph /  20.9km/h 92% 0.00in /  0mm
21:29 65.3 °F /  18.5 °C 62.9 °F /  17.2 °C 29.84in /  1010.4hPa SW 11.0mph /  17.7km/h 12.0mph /  19.3km/h 92% 0.00in /  0mm
21:34 65.4 °F /  18.6 °C 63.0 °F /  17.2 °C 29.84in /  1010.4hPa SW 8.0mph /  12.9km/h 19.0mph /  30.6km/h 92% 0.00in /  0mm
21:39 65.4 °F /  18.6 °C 63.0 °F /  17.2 °C 29.84in /  1010.4hPa SW 7.0mph /  11.3km/h 14.0mph /  22.5km/h 92% 0.00in /  0mm
21:44 65.5 °F /  18.6 °C 63.1 °F /  17.3 °C 29.83in /  1010hPa WSW 8.0mph /  12.9km/h 16.0mph /  25.7km/h 92% 0.00in /  0mm
21:49 65.6 °F /  18.7 °C 63.2 °F /  17.3 °C 29.84in /  1010.4hPa SW 9.0mph /  14.5km/h 15.0mph /  24.1km/h 92% 0.00in /  0mm
21:54 65.6 °F /  18.7 °C 63.2 °F /  17.3 °C 29.84in /  1010.4hPa SW 7.0mph /  11.3km/h 13.0mph /  20.9km/h 92% 0.00in /  0mm
21:59 65.6 °F /  18.7 °C 63.2 °F /  17.3 °C 29.84in /  1010.4hPa SW 9.0mph /  14.5km/h 14.0mph /  22.5km/h 92% 0.00in /  0mm
22:04 65.6 °F /  18.7 °C 63.2 °F /  17.3 °C 29.84in /  1010.4hPa SW 7.0mph /  11.3km/h 9.0mph /  14.5km/h 92% 0.00in /  0mm
22:09 65.6 °F /  18.7 °C 63.2 °F /  17.3 °C 29.84in /  1010.4hPa SSW 10.0mph /  16.1km/h 13.0mph /  20.9km/h 92% 0.00in /  0mm
22:14 65.6 °F /  18.7 °C 63.2 °F /  17.3 °C 29.84in /  1010.4hPa SSW 12.0mph /  19.3km/h 16.0mph /  25.7km/h 92% 0.00in /  0mm
22:19 65.6 °F /  18.7 °C 62.9 °F /  17.2 °C 29.84in /  1010.4hPa SW 6.0mph /  9.7km/h 15.0mph /  24.1km/h 91% 0.00in /  0mm
22:24 65.6 °F /  18.7 °C 62.9 °F /  17.2 °C 29.84in /  1010.4hPa WSW 7.0mph /  11.3km/h 14.0mph /  22.5km/h 91% 0.00in /  0mm
22:29 65.6 °F /  18.7 °C 62.9 °F /  17.2 °C 29.84in /  1010.4hPa WSW 11.0mph /  17.7km/h 16.0mph /  25.7km/h 91% 0.00in /  0mm
22:34 65.4 °F /  18.6 °C 62.7 °F /  17.1 °C 29.84in /  1010.4hPa WSW 10.0mph /  16.1km/h 14.0mph /  22.5km/h 91% 0.00in /  0mm
22:40 65.3 °F /  18.5 °C 62.6 °F /  17 °C 29.84in /  1010.4hPa SW 13.0mph /  20.9km/h 14.0mph /  22.5km/h 91% 0.00in /  0mm
22:45 65.1 °F /  18.4 °C 62.7 °F /  17.1 °C 29.84in /  1010.4hPa SW 8.0mph /  12.9km/h 16.0mph /  25.7km/h 92% 0.00in /  0mm
22:50 65.0 °F /  18.3 °C 62.6 °F /  17 °C 29.84in /  1010.4hPa SW 15.0mph /  24.1km/h 15.0mph /  24.1km/h 92% 0.00in /  0mm
22:56 64.9 °F /  18.3 °C 62.5 °F /  16.9 °C 29.85in /  1010.7hPa SW 12.0mph /  19.3km/h 13.0mph /  20.9km/h 92% 0.00in /  0mm
23:01 64.8 °F /  18.2 °C 62.4 °F /  16.9 °C 29.85in /  1010.7hPa SW 11.0mph /  17.7km/h 14.0mph /  22.5km/h 92% 0.00in /  0mm
23:06 64.8 °F /  18.2 °C 62.4 °F /  16.9 °C 29.85in /  1010.7hPa SSW 7.0mph /  11.3km/h 16.0mph /  25.7km/h 92% 0.00in /  0mm
23:11 64.9 °F /  18.3 °C 62.5 °F /  16.9 °C 29.85in /  1010.7hPa WSW 9.0mph /  14.5km/h 14.0mph /  22.5km/h 92% 0.00in /  0mm
23:16 64.8 °F /  18.2 °C 62.4 °F /  16.9 °C 29.84in /  1010.4hPa SW 8.0mph /  12.9km/h 13.0mph /  20.9km/h 92% 0.00in /  0mm
23:21 64.8 °F /  18.2 °C 62.4 °F /  16.9 °C 29.85in /  1010.7hPa SW 11.0mph /  17.7km/h 14.0mph /  22.5km/h 92% 0.00in /  0mm
23:26 64.6 °F /  18.1 °C 62.2 °F /  16.8 °C 29.85in /  1010.7hPa SW 10.0mph /  16.1km/h 13.0mph /  20.9km/h 92% 0.00in /  0mm
23:31 64.6 °F /  18.1 °C 62.2 °F /  16.8 °C 29.84in /  1010.4hPa SW 8.0mph /  12.9km/h 12.0mph /  19.3km/h 92% 0.00in /  0mm
23:36 64.6 °F /  18.1 °C 62.5 °F /  16.9 °C 29.85in /  1010.7hPa WSW 10.0mph /  16.1km/h 12.0mph /  19.3km/h 93% 0.00in /  0mm
23:41 64.6 °F /  18.1 °C 62.2 °F /  16.8 °C 29.85in /  1010.7hPa SW 8.0mph /  12.9km/h 11.0mph /  17.7km/h 92% 0.00in /  0mm
23:46 64.6 °F /  18.1 °C 62.2 °F /  16.8 °C 29.85in /  1010.7hPa WSW 12.0mph /  19.3km/h 12.0mph /  19.3km/h 92% 0.00in /  0mm
23:51 64.5 °F /  18.1 °C 62.1 °F /  16.7 °C 29.85in /  1010.7hPa WSW 7.0mph /  11.3km/h 10.0mph /  16.1km/h 92% 0.00in /  0mm
23:56 64.5 °F /  18.1 °C 62.4 °F /  16.9 °C 29.85in /  1010.7hPa WSW 7.0mph /  11.3km/h 10.0mph /  16.1km/h 93% 0.00in /  0mm
Compliments of Weather Underground